»·PEaware :: N172EL KSNA-KSMO

N172EL :: KSNA-KSMO

FLIGHT INFORMATION

Flight Status: Arrived
Operator: Privately registered:
United States
More flights under this callsign
Pilot: William W. (20687)
Aircraft: CESSNA 172 SKYHAWK
(C172)
More flights by this aircraft type
Origin: KSNA John Wayne-Orange Co
United States
Destination: KSMO Santa Monica Mun
United States
More flights between these airports :: More routes between these airports
Route: +SNA SLI V8 POXKU V363 BAYJY V186 DARTS SMO
File this flight plan on PilotEdge
Remarks: I-4 to SMO
Altitude:
(Current/Filed)
6,000ft
Speed:
(Current/Filed)
115kts
Departed: 07-Oct-18 12:21 PM
Arrived: 07-Oct-18 01:04 PM
Distance/Time
Traveled:
36nm/0:42
Distance/Time
To Go:
Arrived

Flight Plot

Page will automatically refresh every two minutes.

Flight plan parsing failed; only flown route is shown


Map Options




Map Legend


Flown Route
Filed Route
Departure Airport
Arrival Airport
Navaid (VOR, NDB)
Fix

Horizontal Profiles

Position Reports

Time Latitude Longitude Heading Altitude Ground
Speed
07-Oct-18 12:07 33.676028 -117.871113 40 60ft 0kts
07-Oct-18 12:08 33.676028 -117.871113 40 60ft 0kts
07-Oct-18 12:09 33.676028 -117.871113 40 60ft 0kts
07-Oct-18 12:10 33.676028 -117.871113 40 60ft 0kts
07-Oct-18 12:11 33.676028 -117.871113 40 60ft 0kts
07-Oct-18 12:12 33.676028 -117.871113 40 60ft 0kts
07-Oct-18 12:13 33.676028 -117.871113 40 60ft 0kts
07-Oct-18 12:14 33.676028 -117.871113 40 60ft 0kts
07-Oct-18 12:15 33.676028 -117.871113 40 60ft 0kts
07-Oct-18 12:16 33.676028 -117.871113 40 60ft 0kts
07-Oct-18 12:17 33.676028 -117.871113 40 60ft 0kts
07-Oct-18 12:18 33.677342 -117.869283 25 60ft 19kts
07-Oct-18 12:19 33.681207 -117.866790 81 60ft 0kts
07-Oct-18 12:20 33.681207 -117.866790 81 60ft 0kts
07-Oct-18 12:21 33.681207 -117.866790 81 60ft 0kts
07-Oct-18 12:22 33.680205 -117.865878 204 60ft 21kts
07-Oct-18 12:23 33.664111 -117.874620 204 890ft 72kts
07-Oct-18 12:24 33.651403 -117.892864 230 1919ft 74kts
07-Oct-18 12:25 33.634974 -117.917957 230 2607ft 80kts
07-Oct-18 12:26 33.622067 -117.937128 230 3596ft 74kts
07-Oct-18 12:27 33.608616 -117.956408 230 4505ft 77kts
07-Oct-18 12:28 33.594492 -117.975887 230 5416ft 78kts
07-Oct-18 12:29 33.599023 -117.989723 350 5995ft 106kts
07-Oct-18 12:30 33.629704 -117.997902 340 5995ft 117kts
07-Oct-18 12:31 33.660936 -118.009435 338 5993ft 118kts
07-Oct-18 12:32 33.692457 -118.021252 338 5989ft 119kts
07-Oct-18 12:33 33.724203 -118.033145 338 5988ft 120kts
07-Oct-18 12:34 33.756126 -118.045654 337 5988ft 121kts
07-Oct-18 12:35 33.785286 -118.036086 53 5990ft 128kts
07-Oct-18 12:36 33.798986 -117.996921 70 5994ft 127kts
07-Oct-18 12:37 33.809562 -117.956296 70 5992ft 127kts
07-Oct-18 12:38 33.819570 -117.915673 70 5971ft 127kts
07-Oct-18 12:39 33.829966 -117.875137 69 5970ft 126kts
07-Oct-18 12:40 33.840312 -117.835051 69 5967ft 125kts
07-Oct-18 12:41 33.850601 -117.795096 69 5965ft 124kts
07-Oct-18 12:42 33.878704 -117.783932 356 5961ft 115kts
07-Oct-18 12:43 33.910617 -117.784521 357 5949ft 115kts
07-Oct-18 12:44 33.942153 -117.785184 357 5995ft 113kts
07-Oct-18 12:45 33.974005 -117.785855 356 5999ft 114kts
07-Oct-18 12:46 34.005310 -117.789012 312 6004ft 112kts
07-Oct-18 12:47 34.018654 -117.822807 291 6034ft 113kts
07-Oct-18 12:48 34.029792 -117.858066 291 6032ft 113kts
07-Oct-18 12:49 34.040388 -117.892033 290 6031ft 113kts
07-Oct-18 12:50 34.049576 -117.921532 290 6031ft 113kts
07-Oct-18 12:51 34.062918 -117.964467 289 5774ft 128kts
07-Oct-18 12:52 34.075604 -118.005197 289 5219ft 129kts
07-Oct-18 12:53 34.082545 -118.046874 266 4674ft 128kts
07-Oct-18 12:54 34.080837 -118.089716 266 4160ft 129kts
07-Oct-18 12:55 34.079615 -118.124323 266 4021ft 117kts
07-Oct-18 12:56 34.078235 -118.172526 266 3553ft 129kts
07-Oct-18 12:57 34.077451 -118.208404 266 3175ft 128kts
07-Oct-18 12:58 34.076867 -118.250213 266 3006ft 119kts
07-Oct-18 12:59 34.074920 -118.289402 238 3011ft 113kts
07-Oct-18 13:00 34.072819 -118.324538 276 2999ft 109kts
07-Oct-18 13:01 34.077810 -118.364100 255 2472ft 125kts
07-Oct-18 13:02 34.057996 -118.397381 226 1467ft 103kts
07-Oct-18 13:03 34.043597 -118.416136 225 1003ft 71kts
07-Oct-18 13:04 34.029677 -118.434440 226 543ft 64kts
07-Oct-18 13:05 34.018840 -118.447608 223 181ft 53kts
07-Oct-18 13:06 34.015041 -118.453212 346 135ft 7kts
07-Oct-18 13:07 34.015440 -118.453030 27 137ft 1kts
07-Oct-18 13:08 34.015862 -118.453051 338 138ft 0kts
07-Oct-18 13:09 34.015862 -118.453051 338 138ft 0kts

Navigation Log

Ident Type
Flight plan parsing failed, navigation log unavailable